sensor_id;sensor_type;location;lat;lon;timestamp;P1;durP1;ratioP1;P2;durP2;ratioP2
9208;SDS011;4639;48.862;9.188;2023-03-01T00:00:39;20.52;;;13.88;;
9208;SDS011;4639;48.862;9.188;2023-03-01T00:03:05;17.90;;;13.52;;
9208;SDS011;4639;48.862;9.188;2023-03-01T00:05:31;18.73;;;14.15;;
9208;SDS011;4639;48.862;9.188;2023-03-01T00:07:57;18.00;;;13.67;;
9208;SDS011;4639;48.862;9.188;2023-03-01T00:10:22;18.50;;;14.40;;
9208;SDS011;4639;48.862;9.188;2023-03-01T00:12:48;19.77;;;14.75;;
9208;SDS011;4639;48.862;9.188;2023-03-01T00:15:14;19.20;;;14.50;;
9208;SDS011;4639;48.862;9.188;2023-03-01T00:17:39;20.57;;;14.90;;
9208;SDS011;4639;48.862;9.188;2023-03-01T00:20:05;21.30;;;14.27;;
9208;SDS011;4639;48.862;9.188;2023-03-01T00:22:35;20.13;;;14.07;;
9208;SDS011;4639;48.862;9.188;2023-03-01T00:25:02;18.17;;;14.25;;
9208;SDS011;4639;48.862;9.188;2023-03-01T00:27:28;23.15;;;14.98;;
9208;SDS011;4639;48.862;9.188;2023-03-01T00:29:54;17.48;;;14.07;;
9208;SDS011;4639;48.862;9.188;2023-03-01T00:32:19;18.80;;;14.27;;
9208;SDS011;4639;48.862;9.188;2023-03-01T00:34:45;21.50;;;15.80;;
9208;SDS011;4639;48.862;9.188;2023-03-01T00:37:18;20.17;;;14.68;;
9208;SDS011;4639;48.862;9.188;2023-03-01T00:39:48;19.55;;;15.25;;
9208;SDS011;4639;48.862;9.188;2023-03-01T00:42:14;19.47;;;14.97;;
9208;SDS011;4639;48.862;9.188;2023-03-01T00:44:40;22.33;;;15.07;;
9208;SDS011;4639;48.862;9.188;2023-03-01T00:47:05;19.73;;;14.95;;
9208;SDS011;4639;48.862;9.188;2023-03-01T00:49:31;18.87;;;13.83;;
9208;SDS011;4639;48.862;9.188;2023-03-01T00:51:56;20.10;;;15.13;;
9208;SDS011;4639;48.862;9.188;2023-03-01T00:54:22;20.15;;;14.75;;
9208;SDS011;4639;48.862;9.188;2023-03-01T00:56:48;22.48;;;15.90;;
9208;SDS011;4639;48.862;9.188;2023-03-01T00:59:13;20.33;;;15.65;;
9208;SDS011;4639;48.862;9.188;2023-03-01T01:01:39;19.80;;;15.10;;
9208;SDS011;4639;48.862;9.188;2023-03-01T01:04:06;19.48;;;15.00;;
9208;SDS011;4639;48.862;9.188;2023-03-01T01:06:43;23.97;;;15.17;;
9208;SDS011;4639;48.862;9.188;2023-03-01T01:09:11;22.77;;;14.93;;
9208;SDS011;4639;48.862;9.188;2023-03-01T01:11:42;21.20;;;14.93;;
9208;SDS011;4639;48.862;9.188;2023-03-01T01:14:08;21.67;;;15.90;;
9208;SDS011;4639;48.862;9.188;2023-03-01T01:16:34;20.13;;;14.73;;
9208;SDS011;4639;48.862;9.188;2023-03-01T01:19:00;22.25;;;16.13;;
9208;SDS011;4639;48.862;9.188;2023-03-01T01:21:26;20.07;;;15.50;;
9208;SDS011;4639;48.862;9.188;2023-03-01T01:23:52;20.70;;;15.27;;
9208;SDS011;4639;48.862;9.188;2023-03-01T01:26:20;20.57;;;14.43;;
9208;SDS011;4639;48.862;9.188;2023-03-01T01:28:56;22.67;;;15.53;;
9208;SDS011;4639;48.862;9.188;2023-03-01T01:31:22;20.67;;;15.77;;
9208;SDS011;4639;48.862;9.188;2023-03-01T01:33:49;18.73;;;14.77;;
9208;SDS011;4639;48.862;9.188;2023-03-01T01:36:15;21.83;;;15.60;;
9208;SDS011;4639;48.862;9.188;2023-03-01T01:38:41;24.13;;;15.35;;
9208;SDS011;4639;48.862;9.188;2023-03-01T01:41:08;24.07;;;16.07;;
9208;SDS011;4639;48.862;9.188;2023-03-01T01:43:38;20.80;;;15.90;;
9208;SDS011;4639;48.862;9.188;2023-03-01T01:46:30;23.55;;;16.98;;
9208;SDS011;4639;48.862;9.188;2023-03-01T01:48:59;20.20;;;15.60;;
9208;SDS011;4639;48.862;9.188;2023-03-01T01:51:28;21.80;;;15.90;;
9208;SDS011;4639;48.862;9.188;2023-03-01T01:54:03;23.87;;;16.30;;
9208;SDS011;4639;48.862;9.188;2023-03-01T01:56:37;20.13;;;15.23;;
9208;SDS011;4639;48.862;9.188;2023-03-01T01:59:06;23.73;;;16.37;;
9208;SDS011;4639;48.862;9.188;2023-03-01T02:01:31;21.20;;;16.67;;
9208;SDS011;4639;48.862;9.188;2023-03-01T02:03:57;21.80;;;17.00;;
9208;SDS011;4639;48.862;9.188;2023-03-01T02:06:31;23.67;;;16.50;;
9208;SDS011;4639;48.862;9.188;2023-03-01T02:09:06;21.47;;;16.40;;
9208;SDS011;4639;48.862;9.188;2023-03-01T02:11:36;21.48;;;16.13;;
9208;SDS011;4639;48.862;9.188;2023-03-01T02:14:02;22.80;;;15.93;;
9208;SDS011;4639;48.862;9.188;2023-03-01T02:16:29;23.00;;;17.08;;
9208;SDS011;4639;48.862;9.188;2023-03-01T02:18:55;25.23;;;18.02;;
9208;SDS011;4639;48.862;9.188;2023-03-01T02:23:51;22.40;;;15.97;;
9208;SDS011;4639;48.862;9.188;2023-03-01T02:26:33;21.30;;;16.17;;
9208;SDS011;4639;48.862;9.188;2023-03-01T02:29:04;22.23;;;16.45;;
9208;SDS011;4639;48.862;9.188;2023-03-01T02:31:30;18.37;;;15.33;;
9208;SDS011;4639;48.862;9.188;2023-03-01T02:34:09;21.63;;;16.40;;
9208;SDS011;4639;48.862;9.188;2023-03-01T02:36:38;24.30;;;17.05;;
9208;SDS011;4639;48.862;9.188;2023-03-01T02:39:07;20.23;;;16.45;;
9208;SDS011;4639;48.862;9.188;2023-03-01T02:41:39;21.05;;;15.63;;
9208;SDS011;4639;48.862;9.188;2023-03-01T02:44:07;21.00;;;16.02;;
9208;SDS011;4639;48.862;9.188;2023-03-01T02:46:33;22.23;;;17.70;;
9208;SDS011;4639;48.862;9.188;2023-03-01T02:55:01;23.13;;;16.52;;
9208;SDS011;4639;48.862;9.188;2023-03-01T02:57:31;20.60;;;16.40;;
9208;SDS011;4639;48.862;9.188;2023-03-01T03:00:00;20.08;;;16.05;;
9208;SDS011;4639;48.862;9.188;2023-03-01T03:02:32;21.38;;;16.50;;
9208;SDS011;4639;48.862;9.188;2023-03-01T03:07:56;19.35;;;15.30;;
9208;SDS011;4639;48.862;9.188;2023-03-01T03:10:28;20.67;;;16.27;;
9208;SDS011;4639;48.862;9.188;2023-03-01T03:13:00;22.70;;;15.83;;
9208;SDS011;4639;48.862;9.188;2023-03-01T03:15:32;21.20;;;16.67;;
9208;SDS011;4639;48.862;9.188;2023-03-01T03:18:02;21.40;;;16.33;;
9208;SDS011;4639;48.862;9.188;2023-03-01T03:20:29;24.35;;;17.42;;
9208;SDS011;4639;48.862;9.188;2023-03-01T03:22:55;23.42;;;17.10;;
9208;SDS011;4639;48.862;9.188;2023-03-01T03:25:23;21.73;;;17.05;;
9208;SDS011;4639;48.862;9.188;2023-03-01T03:27:50;21.92;;;16.90;;
9208;SDS011;4639;48.862;9.188;2023-03-01T03:30:21;26.23;;;17.77;;
9208;SDS011;4639;48.862;9.188;2023-03-01T03:32:48;24.00;;;18.02;;
9208;SDS011;4639;48.862;9.188;2023-03-01T03:35:21;22.15;;;17.05;;
9208;SDS011;4639;48.862;9.188;2023-03-01T03:37:53;23.27;;;17.25;;
9208;SDS011;4639;48.862;9.188;2023-03-01T03:42:58;23.60;;;17.10;;
9208;SDS011;4639;48.862;9.188;2023-03-01T03:45:23;22.92;;;17.08;;
9208;SDS011;4639;48.862;9.188;2023-03-01T03:47:49;24.38;;;17.65;;
9208;SDS011;4639;48.862;9.188;2023-03-01T03:50:15;21.48;;;16.98;;
9208;SDS011;4639;48.862;9.188;2023-03-01T03:52:42;21.30;;;16.50;;
9208;SDS011;4639;48.862;9.188;2023-03-01T03:55:08;23.88;;;16.95;;
9208;SDS011;4639;48.862;9.188;2023-03-01T03:57:42;22.37;;;17.53;;
9208;SDS011;4639;48.862;9.188;2023-03-01T04:00:09;20.20;;;16.70;;
9208;SDS011;4639;48.862;9.188;2023-03-01T04:02:40;24.03;;;16.87;;
9208;SDS011;4639;48.862;9.188;2023-03-01T04:05:10;23.40;;;17.15;;
9208;SDS011;4639;48.862;9.188;2023-03-01T04:07:37;24.48;;;17.83;;
9208;SDS011;4639;48.862;9.188;2023-03-01T04:10:03;22.00;;;16.83;;
9208;SDS011;4639;48.862;9.188;2023-03-01T04:12:31;23.98;;;17.70;;
9208;SDS011;4639;48.862;9.188;2023-03-01T04:14:59;23.25;;;17.20;;
9208;SDS011;4639;48.862;9.188;2023-03-01T04:17:25;23.98;;;17.40;;
9208;SDS011;4639;48.862;9.188;2023-03-01T04:19:50;22.48;;;17.02;;
9208;SDS011;4639;48.862;9.188;2023-03-01T04:22:16;21.95;;;16.77;;
9208;SDS011;4639;48.862;9.188;2023-03-01T04:24:44;24.25;;;17.38;;
9208;SDS011;4639;48.862;9.188;2023-03-01T04:27:10;23.35;;;16.98;;
9208;SDS011;4639;48.862;9.188;2023-03-01T04:29:36;23.50;;;17.75;;
9208;SDS011;4639;48.862;9.188;2023-03-01T04:32:02;24.63;;;17.15;;
9208;SDS011;4639;48.862;9.188;2023-03-01T04:34:28;24.13;;;17.15;;
9208;SDS011;4639;48.862;9.188;2023-03-01T04:36:54;26.80;;;15.85;;
9208;SDS011;4639;48.862;9.188;2023-03-01T04:39:20;24.50;;;16.67;;
9208;SDS011;4639;48.862;9.188;2023-03-01T04:41:45;22.75;;;18.33;;
9208;SDS011;4639;48.862;9.188;2023-03-01T04:44:11;22.48;;;17.50;;
9208;SDS011;4639;48.862;9.188;2023-03-01T04:46:37;22.00;;;17.03;;
9208;SDS011;4639;48.862;9.188;2023-03-01T04:49:03;20.87;;;16.43;;
9208;SDS011;4639;48.862;9.188;2023-03-01T04:51:30;23.67;;;17.20;;
9208;SDS011;4639;48.862;9.188;2023-03-01T04:53:57;23.65;;;17.83;;
9208;SDS011;4639;48.862;9.188;2023-03-01T04:56:23;24.77;;;17.63;;
9208;SDS011;4639;48.862;9.188;2023-03-01T04:58:48;22.27;;;17.33;;
9208;SDS011;4639;48.862;9.188;2023-03-01T05:01:15;22.00;;;17.25;;
9208;SDS011;4639;48.862;9.188;2023-03-01T05:03:45;21.17;;;16.52;;
9208;SDS011;4639;48.862;9.188;2023-03-01T05:06:13;27.13;;;17.95;;
9208;SDS011;4639;48.862;9.188;2023-03-01T05:08:39;24.27;;;17.57;;
9208;SDS011;4639;48.862;9.188;2023-03-01T05:11:05;23.75;;;17.92;;
9208;SDS011;4639;48.862;9.188;2023-03-01T05:13:33;25.73;;;17.65;;
9208;SDS011;4639;48.862;9.188;2023-03-01T05:16:01;25.80;;;18.52;;
9208;SDS011;4639;48.862;9.188;2023-03-01T05:18:28;22.52;;;17.45;;
9208;SDS011;4639;48.862;9.188;2023-03-01T05:20:55;23.95;;;18.05;;
9208;SDS011;4639;48.862;9.188;2023-03-01T05:23:28;25.95;;;18.20;;
9208;SDS011;4639;48.862;9.188;2023-03-01T05:25:57;25.83;;;18.60;;
9208;SDS011;4639;48.862;9.188;2023-03-01T05:28:24;22.45;;;16.65;;
9208;SDS011;4639;48.862;9.188;2023-03-01T05:30:51;21.60;;;16.35;;
9208;SDS011;4639;48.862;9.188;2023-03-01T05:33:17;23.38;;;16.90;;
9208;SDS011;4639;48.862;9.188;2023-03-01T05:35:43;24.17;;;16.70;;
9208;SDS011;4639;48.862;9.188;2023-03-01T05:38:11;22.15;;;17.05;;
9208;SDS011;4639;48.862;9.188;2023-03-01T05:40:41;25.23;;;17.48;;
9208;SDS011;4639;48.862;9.188;2023-03-01T05:43:11;21.58;;;16.33;;
9208;SDS011;4639;48.862;9.188;2023-03-01T05:45:38;31.55;;;20.38;;
9208;SDS011;4639;48.862;9.188;2023-03-01T05:48:06;26.67;;;18.13;;
9208;SDS011;4639;48.862;9.188;2023-03-01T05:50:34;27.55;;;17.48;;
9208;SDS011;4639;48.862;9.188;2023-03-01T05:53:02;22.07;;;17.93;;
9208;SDS011;4639;48.862;9.188;2023-03-01T05:55:31;28.58;;;17.60;;
9208;SDS011;4639;48.862;9.188;2023-03-01T05:57:58;25.00;;;16.55;;
9208;SDS011;4639;48.862;9.188;2023-03-01T06:00:25;24.55;;;18.42;;
9208;SDS011;4639;48.862;9.188;2023-03-01T06:02:51;23.30;;;17.23;;
9208;SDS011;4639;48.862;9.188;2023-03-01T06:05:18;27.77;;;18.45;;
9208;SDS011;4639;48.862;9.188;2023-03-01T06:07:43;24.92;;;17.70;;
9208;SDS011;4639;48.862;9.188;2023-03-01T06:10:09;23.67;;;17.42;;
9208;SDS011;4639;48.862;9.188;2023-03-01T06:12:36;25.60;;;18.33;;
9208;SDS011;4639;48.862;9.188;2023-03-01T06:15:03;26.27;;;17.52;;
9208;SDS011;4639;48.862;9.188;2023-03-01T06:17:30;23.35;;;18.48;;
9208;SDS011;4639;48.862;9.188;2023-03-01T06:19:57;24.90;;;18.08;;
9208;SDS011;4639;48.862;9.188;2023-03-01T06:22:23;23.75;;;18.88;;
9208;SDS011;4639;48.862;9.188;2023-03-01T06:24:49;22.63;;;17.90;;
9208;SDS011;4639;48.862;9.188;2023-03-01T06:27:14;24.33;;;18.08;;
9208;SDS011;4639;48.862;9.188;2023-03-01T06:29:40;23.45;;;17.83;;
9208;SDS011;4639;48.862;9.188;2023-03-01T06:32:06;25.45;;;19.13;;
9208;SDS011;4639;48.862;9.188;2023-03-01T06:34:32;23.80;;;17.63;;
9208;SDS011;4639;48.862;9.188;2023-03-01T06:36:58;22.38;;;17.10;;
9208;SDS011;4639;48.862;9.188;2023-03-01T06:39:24;24.27;;;17.70;;
9208;SDS011;4639;48.862;9.188;2023-03-01T06:41:49;23.42;;;17.83;;
9208;SDS011;4639;48.862;9.188;2023-03-01T06:44:15;22.42;;;18.05;;
9208;SDS011;4639;48.862;9.188;2023-03-01T06:46:40;24.48;;;18.92;;
9208;SDS011;4639;48.862;9.188;2023-03-01T06:49:06;24.58;;;18.55;;
9208;SDS011;4639;48.862;9.188;2023-03-01T06:51:34;23.88;;;17.77;;
9208;SDS011;4639;48.862;9.188;2023-03-01T06:54:01;24.25;;;18.13;;
9208;SDS011;4639;48.862;9.188;2023-03-01T06:56:28;33.92;;;19.45;;
9208;SDS011;4639;48.862;9.188;2023-03-01T06:58:54;24.40;;;17.90;;
9208;SDS011;4639;48.862;9.188;2023-03-01T07:01:19;23.08;;;18.13;;
9208;SDS011;4639;48.862;9.188;2023-03-01T07:03:45;28.27;;;19.52;;
9208;SDS011;4639;48.862;9.188;2023-03-01T07:06:11;25.25;;;18.30;;
9208;SDS011;4639;48.862;9.188;2023-03-01T07:08:36;26.10;;;18.90;;
9208;SDS011;4639;48.862;9.188;2023-03-01T07:11:02;24.23;;;18.73;;
9208;SDS011;4639;48.862;9.188;2023-03-01T07:13:28;25.98;;;17.98;;
9208;SDS011;4639;48.862;9.188;2023-03-01T07:15:54;26.77;;;17.42;;
9208;SDS011;4639;48.862;9.188;2023-03-01T07:18:20;23.67;;;18.23;;
9208;SDS011;4639;48.862;9.188;2023-03-01T07:20:46;25.33;;;18.35;;
9208;SDS011;4639;48.862;9.188;2023-03-01T07:23:11;25.38;;;17.88;;
9208;SDS011;4639;48.862;9.188;2023-03-01T07:25:37;33.25;;;18.50;;
9208;SDS011;4639;48.862;9.188;2023-03-01T07:28:02;24.27;;;17.55;;
9208;SDS011;4639;48.862;9.188;2023-03-01T07:30:28;34.60;;;19.48;;
9208;SDS011;4639;48.862;9.188;2023-03-01T07:32:54;31.45;;;18.42;;
9208;SDS011;4639;48.862;9.188;2023-03-01T07:35:22;31.35;;;18.90;;
9208;SDS011;4639;48.862;9.188;2023-03-01T07:37:48;34.70;;;20.15;;
9208;SDS011;4639;48.862;9.188;2023-03-01T07:40:14;25.10;;;17.80;;
9208;SDS011;4639;48.862;9.188;2023-03-01T07:42:39;26.13;;;18.02;;
9208;SDS011;4639;48.862;9.188;2023-03-01T07:45:05;24.45;;;17.60;;
9208;SDS011;4639;48.862;9.188;2023-03-01T07:47:31;26.88;;;19.13;;
9208;SDS011;4639;48.862;9.188;2023-03-01T07:49:57;24.75;;;17.73;;
9208;SDS011;4639;48.862;9.188;2023-03-01T07:52:23;24.23;;;17.80;;
9208;SDS011;4639;48.862;9.188;2023-03-01T07:54:48;25.00;;;17.30;;
9208;SDS011;4639;48.862;9.188;2023-03-01T07:57:14;25.20;;;17.33;;
9208;SDS011;4639;48.862;9.188;2023-03-01T07:59:40;26.85;;;18.08;;
9208;SDS011;4639;48.862;9.188;2023-03-01T08:02:11;24.55;;;18.23;;
9208;SDS011;4639;48.862;9.188;2023-03-01T08:04:37;23.10;;;17.98;;
9208;SDS011;4639;48.862;9.188;2023-03-01T08:07:04;28.40;;;18.15;;
9208;SDS011;4639;48.862;9.188;2023-03-01T08:09:30;27.08;;;17.88;;
9208;SDS011;4639;48.862;9.188;2023-03-01T08:11:56;22.17;;;18.13;;
9208;SDS011;4639;48.862;9.188;2023-03-01T08:14:24;27.52;;;18.52;;
9208;SDS011;4639;48.862;9.188;2023-03-01T08:16:50;22.25;;;17.88;;
9208;SDS011;4639;48.862;9.188;2023-03-01T08:19:15;24.58;;;17.23;;
9208;SDS011;4639;48.862;9.188;2023-03-01T08:21:41;26.10;;;18.40;;
9208;SDS011;4639;48.862;9.188;2023-03-01T08:24:07;23.77;;;17.00;;
9208;SDS011;4639;48.862;9.188;2023-03-01T08:26:35;23.40;;;18.20;;
9208;SDS011;4639;48.862;9.188;2023-03-01T08:29:01;22.23;;;17.65;;
9208;SDS011;4639;48.862;9.188;2023-03-01T08:31:38;21.67;;;17.42;;
9208;SDS011;4639;48.862;9.188;2023-03-01T08:34:06;25.13;;;18.65;;
9208;SDS011;4639;48.862;9.188;2023-03-01T08:36:41;25.33;;;17.30;;
9208;SDS011;4639;48.862;9.188;2023-03-01T08:39:08;24.27;;;18.42;;
9208;SDS011;4639;48.862;9.188;2023-03-01T08:41:35;24.92;;;17.48;;
9208;SDS011;4639;48.862;9.188;2023-03-01T08:44:02;21.40;;;17.23;;
9208;SDS011;4639;48.862;9.188;2023-03-01T08:46:28;24.13;;;17.60;;
9208;SDS011;4639;48.862;9.188;2023-03-01T08:48:56;21.30;;;17.42;;
9208;SDS011;4639;48.862;9.188;2023-03-01T08:51:23;26.83;;;18.33;;
9208;SDS011;4639;48.862;9.188;2023-03-01T08:53:49;26.40;;;17.02;;
9208;SDS011;4639;48.862;9.188;2023-03-01T08:56:15;25.48;;;18.05;;
9208;SDS011;4639;48.862;9.188;2023-03-01T08:58:45;23.83;;;16.95;;
9208;SDS011;4639;48.862;9.188;2023-03-01T09:01:13;23.23;;;16.95;;
9208;SDS011;4639;48.862;9.188;2023-03-01T09:03:41;22.45;;;17.08;;
9208;SDS011;4639;48.862;9.188;2023-03-01T09:06:07;20.90;;;17.77;;
9208;SDS011;4639;48.862;9.188;2023-03-01T09:08:34;21.85;;;16.77;;
9208;SDS011;4639;48.862;9.188;2023-03-01T09:11:02;21.35;;;17.40;;
9208;SDS011;4639;48.862;9.188;2023-03-01T09:13:28;24.00;;;18.60;;
9208;SDS011;4639;48.862;9.188;2023-03-01T09:15:56;21.52;;;17.67;;
9208;SDS011;4639;48.862;9.188;2023-03-01T09:18:22;23.13;;;17.40;;
9208;SDS011;4639;48.862;9.188;2023-03-01T09:20:47;22.15;;;16.95;;
9208;SDS011;4639;48.862;9.188;2023-03-01T09:23:13;21.30;;;17.33;;
9208;SDS011;4639;48.862;9.188;2023-03-01T09:25:38;23.58;;;16.65;;
9208;SDS011;4639;48.862;9.188;2023-03-01T09:28:04;22.40;;;17.33;;
9208;SDS011;4639;48.862;9.188;2023-03-01T09:30:30;22.05;;;16.85;;
9208;SDS011;4639;48.862;9.188;2023-03-01T09:32:58;20.30;;;17.05;;
9208;SDS011;4639;48.862;9.188;2023-03-01T09:35:24;19.27;;;16.42;;
9208;SDS011;4639;48.862;9.188;2023-03-01T09:37:49;23.77;;;18.10;;
9208;SDS011;4639;48.862;9.188;2023-03-01T09:40:17;19.90;;;16.58;;
9208;SDS011;4639;48.862;9.188;2023-03-01T09:42:46;21.27;;;16.90;;
9208;SDS011;4639;48.862;9.188;2023-03-01T09:45:25;19.35;;;16.15;;
9208;SDS011;4639;48.862;9.188;2023-03-01T09:48:03;21.08;;;17.42;;
9208;SDS011;4639;48.862;9.188;2023-03-01T09:50:34;19.17;;;16.88;;
9208;SDS011;4639;48.862;9.188;2023-03-01T09:53:05;20.77;;;16.50;;
9208;SDS011;4639;48.862;9.188;2023-03-01T09:55:42;19.65;;;16.48;;
9208;SDS011;4639;48.862;9.188;2023-03-01T10:01:02;20.58;;;16.85;;
9208;SDS011;4639;48.862;9.188;2023-03-01T10:03:41;20.33;;;16.48;;
9208;SDS011;4639;48.862;9.188;2023-03-01T10:08:48;20.95;;;15.50;;
9208;SDS011;4639;48.862;9.188;2023-03-01T10:11:22;19.55;;;16.23;;
9208;SDS011;4639;48.862;9.188;2023-03-01T10:16:26;25.67;;;17.92;;
9208;SDS011;4639;48.862;9.188;2023-03-01T10:19:17;20.13;;;16.30;;
9208;SDS011;4639;48.862;9.188;2023-03-01T10:21:55;19.63;;;16.05;;
9208;SDS011;4639;48.862;9.188;2023-03-01T10:24:53;17.77;;;15.18;;
9208;SDS011;4639;48.862;9.188;2023-03-01T10:27:24;19.08;;;16.15;;
9208;SDS011;4639;48.862;9.188;2023-03-01T10:35:46;18.10;;;15.05;;
9208;SDS011;4639;48.862;9.188;2023-03-01T10:38:13;18.83;;;15.68;;
9208;SDS011;4639;48.862;9.188;2023-03-01T10:49:05;18.27;;;16.17;;
9208;SDS011;4639;48.862;9.188;2023-03-01T10:51:51;20.85;;;15.20;;
9208;SDS011;4639;48.862;9.188;2023-03-01T10:54:39;20.40;;;15.18;;
9208;SDS011;4639;48.862;9.188;2023-03-01T10:57:10;17.45;;;14.82;;
9208;SDS011;4639;48.862;9.188;2023-03-01T11:02:41;17.38;;;14.73;;
9208;SDS011;4639;48.862;9.188;2023-03-01T11:07:49;17.80;;;14.85;;
9208;SDS011;4639;48.862;9.188;2023-03-01T11:10:18;16.38;;;14.25;;
9208;SDS011;4639;48.862;9.188;2023-03-01T11:12:46;16.90;;;13.63;;
9208;SDS011;4639;48.862;9.188;2023-03-01T11:15:22;16.45;;;14.65;;
9208;SDS011;4639;48.862;9.188;2023-03-01T11:17:50;19.45;;;15.15;;
9208;SDS011;4639;48.862;9.188;2023-03-01T11:20:32;17.55;;;13.80;;
9208;SDS011;4639;48.862;9.188;2023-03-01T11:23:04;15.82;;;13.73;;
9208;SDS011;4639;48.862;9.188;2023-03-01T11:25:35;15.75;;;13.55;;
9208;SDS011;4639;48.862;9.188;2023-03-01T11:28:04;17.73;;;13.90;;
9208;SDS011;4639;48.862;9.188;2023-03-01T11:30:34;16.05;;;12.57;;
9208;SDS011;4639;48.862;9.188;2023-03-01T11:35:35;15.77;;;13.15;;
9208;SDS011;4639;48.862;9.188;2023-03-01T11:54:27;17.55;;;13.68;;
9208;SDS011;4639;48.862;9.188;2023-03-01T11:59:36;18.73;;;15.02;;
9208;SDS011;4639;48.862;9.188;2023-03-01T12:13:20;17.63;;;14.30;;
9208;SDS011;4639;48.862;9.188;2023-03-01T12:16:25;17.10;;;14.40;;
9208;SDS011;4639;48.862;9.188;2023-03-01T12:24:46;16.27;;;14.38;;
9208;SDS011;4639;48.862;9.188;2023-03-01T12:30:33;15.93;;;14.02;;
9208;SDS011;4639;48.862;9.188;2023-03-01T12:41:26;17.70;;;14.15;;
9208;SDS011;4639;48.862;9.188;2023-03-01T12:50:23;17.63;;;14.10;;
9208;SDS011;4639;48.862;9.188;2023-03-01T12:52:57;16.15;;;14.13;;
9208;SDS011;4639;48.862;9.188;2023-03-01T13:09:19;17.25;;;14.60;;
9208;SDS011;4639;48.862;9.188;2023-03-01T13:11:46;17.55;;;13.93;;
9208;SDS011;4639;48.862;9.188;2023-03-01T13:16:48;16.05;;;14.35;;
9208;SDS011;4639;48.862;9.188;2023-03-01T13:19:18;17.83;;;14.48;;
9208;SDS011;4639;48.862;9.188;2023-03-01T13:21:45;16.65;;;14.05;;
9208;SDS011;4639;48.862;9.188;2023-03-01T13:24:29;16.88;;;13.65;;
9208;SDS011;4639;48.862;9.188;2023-03-01T13:27:40;16.40;;;13.65;;
9208;SDS011;4639;48.862;9.188;2023-03-01T13:29:51;14.90;;;13.32;;
9208;SDS011;4639;48.862;9.188;2023-03-01T13:32:34;20.17;;;14.10;;
9208;SDS011;4639;48.862;9.188;2023-03-01T13:37:41;23.60;;;14.07;;
9208;SDS011;4639;48.862;9.188;2023-03-01T13:42:42;21.23;;;14.25;;
9208;SDS011;4639;48.862;9.188;2023-03-01T13:47:56;19.42;;;14.65;;
9208;SDS011;4639;48.862;9.188;2023-03-01T13:50:27;17.27;;;14.35;;
9208;SDS011;4639;48.862;9.188;2023-03-01T13:52:59;18.67;;;14.77;;
9208;SDS011;4639;48.862;9.188;2023-03-01T13:58:15;19.52;;;14.82;;
9208;SDS011;4639;48.862;9.188;2023-03-01T14:00:46;18.85;;;14.98;;
9208;SDS011;4639;48.862;9.188;2023-03-01T14:03:19;16.50;;;14.77;;
9208;SDS011;4639;48.862;9.188;2023-03-01T14:06:04;21.77;;;15.00;;
9208;SDS011;4639;48.862;9.188;2023-03-01T14:08:32;20.00;;;15.60;;
9208;SDS011;4639;48.862;9.188;2023-03-01T14:13:45;17.30;;;14.95;;
9208;SDS011;4639;48.862;9.188;2023-03-01T14:16:39;19.45;;;14.77;;
9208;SDS011;4639;48.862;9.188;2023-03-01T14:19:23;23.52;;;15.48;;
9208;SDS011;4639;48.862;9.188;2023-03-01T14:22:03;19.48;;;16.23;;
9208;SDS011;4639;48.862;9.188;2023-03-01T14:24:29;16.90;;;15.10;;
9208;SDS011;4639;48.862;9.188;2023-03-01T14:26:58;20.27;;;15.05;;
9208;SDS011;4639;48.862;9.188;2023-03-01T14:29:26;17.75;;;15.15;;
9208;SDS011;4639;48.862;9.188;2023-03-01T14:32:07;18.63;;;15.48;;
9208;SDS011;4639;48.862;9.188;2023-03-01T14:34:42;20.55;;;15.48;;
9208;SDS011;4639;48.862;9.188;2023-03-01T14:37:11;21.33;;;14.82;;
9208;SDS011;4639;48.862;9.188;2023-03-01T14:39:57;17.20;;;15.38;;
9208;SDS011;4639;48.862;9.188;2023-03-01T14:42:25;16.48;;;14.77;;
9208;SDS011;4639;48.862;9.188;2023-03-01T14:44:54;17.65;;;14.82;;
9208;SDS011;4639;48.862;9.188;2023-03-01T14:47:27;18.10;;;15.07;;
9208;SDS011;4639;48.862;9.188;2023-03-01T14:52:45;19.10;;;15.02;;
9208;SDS011;4639;48.862;9.188;2023-03-01T14:55:25;21.27;;;15.73;;
9208;SDS011;4639;48.862;9.188;2023-03-01T14:57:54;23.15;;;15.70;;
9208;SDS011;4639;48.862;9.188;2023-03-01T15:00:22;20.50;;;14.70;;
9208;SDS011;4639;48.862;9.188;2023-03-01T15:02:54;17.65;;;14.82;;
9208;SDS011;4639;48.862;9.188;2023-03-01T15:05:29;18.05;;;15.07;;
9208;SDS011;4639;48.862;9.188;2023-03-01T15:07:57;17.83;;;15.43;;
9208;SDS011;4639;48.862;9.188;2023-03-01T15:10:25;16.60;;;14.68;;
9208;SDS011;4639;48.862;9.188;2023-03-01T15:12:53;18.42;;;15.52;;
9208;SDS011;4639;48.862;9.188;2023-03-01T15:17:58;17.50;;;15.60;;
9208;SDS011;4639;48.862;9.188;2023-03-01T15:20:27;18.73;;;15.05;;
9208;SDS011;4639;48.862;9.188;2023-03-01T15:22:55;22.05;;;15.32;;
9208;SDS011;4639;48.862;9.188;2023-03-01T15:25:26;19.52;;;15.18;;
9208;SDS011;4639;48.862;9.188;2023-03-01T15:27:53;20.65;;;15.82;;
9208;SDS011;4639;48.862;9.188;2023-03-01T15:30:25;19.08;;;15.05;;
9208;SDS011;4639;48.862;9.188;2023-03-01T15:35:48;22.42;;;15.38;;
9208;SDS011;4639;48.862;9.188;2023-03-01T15:40:50;19.33;;;14.90;;
9208;SDS011;4639;48.862;9.188;2023-03-01T15:46:28;19.98;;;14.88;;
9208;SDS011;4639;48.862;9.188;2023-03-01T15:48:58;17.38;;;14.75;;
9208;SDS011;4639;48.862;9.188;2023-03-01T15:51:36;17.80;;;14.65;;
9208;SDS011;4639;48.862;9.188;2023-03-01T15:54:14;18.48;;;15.63;;
9208;SDS011;4639;48.862;9.188;2023-03-01T15:56:44;17.35;;;14.13;;
9208;SDS011;4639;48.862;9.188;2023-03-01T15:59:09;19.05;;;14.70;;
9208;SDS011;4639;48.862;9.188;2023-03-01T16:01:42;19.45;;;14.55;;
9208;SDS011;4639;48.862;9.188;2023-03-01T16:04:09;21.60;;;15.40;;
9208;SDS011;4639;48.862;9.188;2023-03-01T16:06:38;18.17;;;15.13;;
9208;SDS011;4639;48.862;9.188;2023-03-01T16:09:04;18.77;;;14.20;;
9208;SDS011;4639;48.862;9.188;2023-03-01T16:11:30;18.58;;;15.63;;
9208;SDS011;4639;48.862;9.188;2023-03-01T16:13:57;19.83;;;14.60;;
9208;SDS011;4639;48.862;9.188;2023-03-01T16:16:23;19.00;;;15.38;;
9208;SDS011;4639;48.862;9.188;2023-03-01T16:18:49;18.98;;;15.02;;
9208;SDS011;4639;48.862;9.188;2023-03-01T16:21:16;18.92;;;14.00;;
9208;SDS011;4639;48.862;9.188;2023-03-01T16:23:48;19.38;;;15.15;;
9208;SDS011;4639;48.862;9.188;2023-03-01T16:26:14;16.10;;;14.30;;
9208;SDS011;4639;48.862;9.188;2023-03-01T16:28:41;19.50;;;14.75;;
9208;SDS011;4639;48.862;9.188;2023-03-01T16:31:07;19.48;;;15.10;;
9208;SDS011;4639;48.862;9.188;2023-03-01T16:33:33;16.95;;;15.13;;
9208;SDS011;4639;48.862;9.188;2023-03-01T16:36:00;20.25;;;14.95;;
9208;SDS011;4639;48.862;9.188;2023-03-01T16:38:31;20.63;;;15.10;;
9208;SDS011;4639;48.862;9.188;2023-03-01T16:40:56;18.10;;;15.13;;
9208;SDS011;4639;48.862;9.188;2023-03-01T16:43:22;19.98;;;15.30;;
9208;SDS011;4639;48.862;9.188;2023-03-01T16:45:47;22.08;;;15.55;;
9208;SDS011;4639;48.862;9.188;2023-03-01T16:48:13;21.15;;;14.98;;
9208;SDS011;4639;48.862;9.188;2023-03-01T16:50:39;16.67;;;14.35;;
9208;SDS011;4639;48.862;9.188;2023-03-01T16:53:04;18.63;;;15.45;;
9208;SDS011;4639;48.862;9.188;2023-03-01T16:55:30;20.45;;;16.00;;
9208;SDS011;4639;48.862;9.188;2023-03-01T16:57:56;18.85;;;15.35;;
9208;SDS011;4639;48.862;9.188;2023-03-01T17:00:21;19.30;;;15.73;;
9208;SDS011;4639;48.862;9.188;2023-03-01T17:02:47;19.33;;;14.52;;
9208;SDS011;4639;48.862;9.188;2023-03-01T17:05:13;18.00;;;15.05;;
9208;SDS011;4639;48.862;9.188;2023-03-01T17:07:39;19.52;;;14.57;;
9208;SDS011;4639;48.862;9.188;2023-03-01T17:10:05;20.65;;;14.38;;
9208;SDS011;4639;48.862;9.188;2023-03-01T17:12:33;18.88;;;14.40;;
9208;SDS011;4639;48.862;9.188;2023-03-01T17:14:59;20.17;;;15.25;;
9208;SDS011;4639;48.862;9.188;2023-03-01T17:17:25;20.65;;;15.80;;
9208;SDS011;4639;48.862;9.188;2023-03-01T17:19:51;18.60;;;14.82;;